Time;durP1;ratioP1;P1;durP2;ratioP2;P2;SDS_P1;SDS_P2;PMS_P1;PMS_P2;Temp;Humidity;BMP_temperature;BMP_pressure;BME280_temperature;BME280_humidity;BME280_pressure;Samples;Min_cycle;Max_cycle;Signal;HPM_P1;HPM_P2
2021/01/28 05:15:39;;;;;;;1.13;1.13;;;4.90;99.90;;;;;;6164035;22;20189;-79
2021/01/28 05:18:22;;;;;;;1.10;1.10;;;4.90;99.90;;;;;;6217153;23;20159;-78
2021/01/28 05:20:50;;;;;;;1.40;1.40;;;5.00;99.90;;;;;;6217094;23;20165;-78
2021/01/28 05:23:28;;;;;;;1.00;1.00;;;5.00;99.90;;;;;;6216582;23;20178;-79
2021/01/28 05:25:56;;;;;;;1.20;1.20;;;5.00;99.90;;;;;;6215597;23;20205;-76
2021/01/28 05:28:29;;;;;;;1.27;1.27;;;4.80;99.90;;;;;;6215120;23;20722;-76
2021/01/28 05:30:58;;;;;;;1.10;1.10;;;4.90;99.90;;;;;;6217791;23;20159;-77
2021/01/28 05:33:32;;;;;;;1.17;1.17;;;5.20;99.90;;;;;;6218211;23;20244;-78
2021/01/28 05:36:15;;;;;;;1.20;1.20;;;5.10;99.90;;;;;;6217473;23;20252;-77
2021/01/28 05:38:44;;;;;;;1.00;1.00;;;4.90;99.90;;;;;;6217825;23;20154;-77
2021/01/28 05:41:24;;;;;;;1.30;1.30;;;5.00;99.90;;;;;;6215912;23;20181;-77
2021/01/28 05:43:51;;;;;;;1.10;1.10;;;;;;;;;;6216143;23;20543;-75
2021/01/28 05:46:21;;;;;;;1.40;1.40;;;4.90;99.90;;;;;;6215271;23;20202;-77
2021/01/28 05:49:02;;;;;;;1.10;1.10;;;5.00;99.90;;;;;;6214327;23;20225;-75
2021/01/28 05:51:40;;;;;;;1.23;1.23;;;5.10;99.90;;;;;;6213334;23;20534;-77
2021/01/28 05:54:09;;;;;;;1.20;1.20;;;5.50;99.90;;;;;;6214544;23;20216;-77
2021/01/28 05:56:52;;;;;;;1.00;1.00;;;4.90;99.90;;;;;;6214467;23;20676;-77
2021/01/28 05:59:26;;;;;;;1.10;1.10;;;5.00;99.90;;;;;;6215414;23;20342;-76
2021/01/28 06:02:06;;;;;;;1.20;1.20;;;4.80;99.90;;;;;;6216449;23;20162;-75
2021/01/28 06:04:44;;;;;;;1.03;1.03;;;4.90;99.90;;;;;;6214581;23;20201;-76
2021/01/28 06:07:31;;;;;;;1.20;1.20;;;5.10;99.90;;;;;;6216487;23;20198;-76
2021/01/28 06:10:20;;;;;;;1.17;1.17;;;5.00;99.90;;;;;;6215927;23;20644;-77
2021/01/28 06:13:10;;;;;;;1.10;1.10;;;4.90;99.90;;;;;;6218455;23;20162;-79
2021/01/28 06:15:48;;;;;;;1.27;1.27;;;5.00;99.90;;;;;;6161415;23;20241;-79
2021/01/28 06:18:43;;;;;;;1.30;1.30;;;4.80;99.90;;;;;;6218615;23;20620;-77
2021/01/28 06:21:25;;;;;;;1.30;1.30;;;4.80;99.90;;;;;;6215114;23;20171;-79
2021/01/28 06:24:14;;;;;;;1.20;1.20;;;4.80;99.90;;;;;;6220734;23;20162;-79
2021/01/28 06:26:49;;;;;;;1.13;1.13;;;4.70;99.90;;;;;;6220202;23;20260;-79
2021/01/28 06:29:43;;;;;;;1.10;1.10;;;4.80;99.90;;;;;;6220342;23;20177;-79
2021/01/28 06:32:32;;;;;;;1.10;1.10;;;4.70;99.90;;;;;;6222213;23;20163;-79
2021/01/28 06:35:15;;;;;;;1.10;1.10;;;4.80;99.90;;;;;;6222567;23;20163;-80
2021/01/28 06:37:57;;;;;;;1.30;1.30;;;4.80;99.90;;;;;;6223001;23;20158;-80
2021/01/28 06:40:30;;;;;;;1.20;1.20;;;5.50;99.90;;;;;;6220418;23;20664;-79
2021/01/28 06:43:02;;;;;;;1.10;1.10;;;4.80;99.90;;;;;;6217577;23;20609;-79
2021/01/28 06:45:33;;;;;;;1.13;1.13;;;4.80;99.90;;;;;;6218831;23;20162;-79
2021/01/28 06:48:06;;;;;;;1.20;1.20;;;4.90;99.90;;;;;;6218250;23;20163;-79
2021/01/28 06:50:41;;;;;;;1.13;1.13;;;4.90;99.90;;;;;;6219838;23;20217;-79
2021/01/28 06:53:13;;;;;;;1.20;1.20;;;5.10;99.90;;;;;;6219594;23;20158;-82
2021/01/28 06:55:47;;;;;;;1.10;1.10;;;5.00;99.90;;;;;;6221663;23;20261;-81
2021/01/28 06:58:42;;;;;;;1.30;1.30;;;5.10;99.90;;;;;;6216709;23;20170;-79
2021/01/28 11:31:05;;;;;;;0.90;0.90;;;8.10;99.90;;;;;;6203784;22;20584;-79
2021/01/28 11:33:33;;;;;;;1.00;1.00;;;7.90;99.90;;;;;;6218014;23;20229;-79
2021/01/28 11:36:01;;;;;;;0.90;0.90;;;8.00;99.90;;;;;;6217605;23;20178;-79
2021/01/28 11:38:28;;;;;;;1.00;1.00;;;7.70;99.90;;;;;;6217788;23;20225;-79
2021/01/28 11:40:55;;;;;;;0.90;0.90;;;7.70;99.90;;;;;;6217645;23;20256;-79
2021/01/28 11:43:22;;;;;;;0.70;0.70;;;7.70;99.90;;;;;;6218246;23;20181;-79
2021/01/28 11:45:49;;;;;;;0.93;0.93;;;7.70;99.90;;;;;;6218810;23;20177;-81
2021/01/28 11:48:17;;;;;;;0.93;0.93;;;8.00;99.90;;;;;;6217733;23;20174;-80
2021/01/28 11:50:44;;;;;;;1.10;1.10;;;8.00;99.90;;;;;;6220223;23;20573;-80
2021/01/28 11:53:11;;;;;;;1.23;1.23;;;7.90;99.90;;;;;;6220352;23;20205;-81
2021/01/28 11:55:38;;;;;;;1.00;1.00;;;7.90;99.90;;;;;;6220203;23;20636;-79
2021/01/28 11:58:05;;;;;;;1.05;1.05;;;8.10;99.90;;;;;;6219838;23;20236;-80
2021/01/28 12:00:32;;;;;;;0.88;0.88;;;7.90;99.90;;;;;;6220443;23;20244;-80
2021/01/28 12:02:59;;;;;;;0.98;0.98;;;8.00;99.90;;;;;;6220947;23;20228;-80
2021/01/28 12:05:28;;;;;;;1.00;1.00;;;7.90;99.90;;;;;;6219865;23;20210;-80
2021/01/28 12:07:56;;;;;;;1.20;1.20;;;8.10;99.90;;;;;;6218795;23;20947;-80
2021/01/28 12:10:25;;;;;;;1.00;1.00;;;8.10;99.90;;;;;;6218612;23;20193;-81
2021/01/28 12:12:52;;;;;;;0.90;0.90;;;8.00;99.90;;;;;;6219028;23;20186;-79
2021/01/28 12:15:21;;;;;;;1.00;1.00;;;7.80;99.90;;;;;;6219616;23;20182;-82
2021/01/28 12:17:50;;;;;;;1.00;1.00;;;7.80;99.90;;;;;;6227112;23;20163;-80
2021/01/28 12:20:20;;;;;;;0.90;0.90;;;8.10;99.90;;;;;;6225701;23;20174;-80
2021/01/28 12:22:49;;;;;;;1.02;1.02;;;8.10;99.90;;;;;;6222079;23;20166;-79
2021/01/28 12:25:16;;;;;;;0.90;0.90;;;7.90;99.90;;;;;;6220891;23;20180;-78
2021/01/28 12:27:43;;;;;;;1.00;1.00;;;7.90;99.90;;;;;;6220285;23;20189;-78
2021/01/28 12:30:13;;;;;;;1.00;1.00;;;8.00;99.90;;;;;;6220981;23;20194;-78
2021/01/28 12:32:40;;;;;;;1.00;1.00;;;7.90;99.90;;;;;;6220123;23;20240;-80
2021/01/28 12:35:08;;;;;;;0.98;0.98;;;8.10;99.90;;;;;;6219550;23;20174;-80
2021/01/28 12:37:35;;;;;;;0.90;0.90;;;7.90;99.90;;;;;;6218525;23;20178;-79
2021/01/28 12:40:04;;;;;;;0.90;0.90;;;8.10;99.90;;;;;;6217588;23;20178;-79
2021/01/28 12:42:31;;;;;;;0.90;0.90;;;8.10;99.90;;;;;;6218246;23;20194;-81
2021/01/28 12:44:58;;;;;;;0.98;0.98;;;8.00;99.90;;;;;;6217732;23;20182;-79
2021/01/28 12:47:25;;;;;;;0.95;0.95;;;8.10;99.90;;;;;;6220066;23;20181;-77
2021/01/28 12:49:53;;;;;;;1.00;1.00;;;8.10;99.90;;;;;;6217598;23;20691;-80
2021/01/28 12:52:20;;;;;;;1.20;1.20;;;8.10;99.90;;;;;;6218461;23;20198;-80
2021/01/28 12:54:47;;;;;;;1.00;1.00;;;8.00;99.90;;;;;;6216749;23;20225;-80
2021/01/28 12:57:15;;;;;;;0.90;0.90;;;8.20;99.90;;;;;;6217244;23;20154;-80
2021/01/28 12:59:42;;;;;;;1.00;1.00;;;8.20;99.90;;;;;;6218335;23;20174;-80
2021/01/28 13:02:09;;;;;;;0.90;0.90;;;8.20;99.90;;;;;;6220171;23;20199;-80
2021/01/28 13:04:37;;;;;;;1.00;1.00;;;8.30;99.90;;;;;;6221214;23;20556;-81
2021/01/28 13:07:04;;;;;;;1.05;1.05;;;8.30;99.90;;;;;;6218587;23;20181;-79
2021/01/28 13:09:31;;;;;;;0.80;0.80;;;8.30;99.90;;;;;;6217222;23;20193;-79
2021/01/28 13:11:58;;;;;;;0.90;0.90;;;8.00;99.90;;;;;;6217046;23;20198;-79
2021/01/28 13:14:26;;;;;;;1.10;1.10;;;8.00;99.90;;;;;;6217386;23;20173;-80
2021/01/28 13:16:53;;;;;;;1.00;1.00;;;8.10;99.90;;;;;;6216354;23;20178;-80
2021/01/28 13:19:20;;;;;;;0.80;0.80;;;7.90;99.90;;;;;;6216847;23;20482;-80
2021/01/28 13:21:47;;;;;;;0.93;0.93;;;7.90;99.90;;;;;;6216879;23;20541;-79
2021/01/28 13:24:14;;;;;;;1.00;1.00;;;8.00;99.90;;;;;;6216304;23;20205;-79
2021/01/28 13:26:41;;;;;;;1.10;1.10;;;7.90;99.90;;;;;;6217044;23;20178;-79
2021/01/28 13:29:08;;;;;;;0.90;0.90;;;8.00;99.90;;;;;;6216524;23;20514;-79
2021/01/28 13:31:35;;;;;;;0.80;0.80;;;8.00;99.90;;;;;;6216238;23;20684;-80
2021/01/28 13:34:04;;;;;;;1.10;1.10;;;7.90;99.90;;;;;;6215900;23;20586;-79
2021/01/28 13:36:31;;;;;;;1.10;1.10;;;7.80;99.90;;;;;;6216262;23;20178;-79
2021/01/28 13:38:58;;;;;;;0.93;0.93;;;7.80;99.90;;;;;;6215460;23;20624;-79
2021/01/28 13:41:25;;;;;;;1.10;1.10;;;7.70;99.90;;;;;;6215886;23;20279;-77
2021/01/28 13:43:52;;;;;;;1.02;1.02;;;7.80;99.90;;;;;;6215908;23;20646;-77
2021/01/28 13:46:19;;;;;;;0.90;0.90;;;7.80;99.90;;;;;;6236719;22;20162;-78
2021/01/28 13:48:47;;;;;;;1.10;1.10;;;7.50;99.90;;;;;;6243397;22;20169;-78
2021/01/28 13:51:14;;;;;;;1.00;1.00;;;7.50;99.90;;;;;;6223293;23;20656;-78
2021/01/28 13:53:41;;;;;;;1.02;1.02;;;7.60;99.90;;;;;;6219599;23;20552;-77
2021/01/28 13:56:08;;;;;;;1.10;1.10;;;7.60;99.90;;;;;;6218781;23;20667;-77
2021/01/28 13:58:34;;;;;;;0.90;0.90;;;7.70;99.90;;;;;;6219700;23;20178;-78
2021/01/28 14:01:01;;;;;;;0.98;0.98;;;7.60;99.90;;;;;;6218919;23;20252;-77
2021/01/28 14:03:29;;;;;;;0.98;0.98;;;7.40;99.90;;;;;;6218688;23;20234;-77
2021/01/28 14:05:56;;;;;;;0.90;0.90;;;7.50;99.90;;;;;;6218363;23;20178;-80
2021/01/28 14:08:23;;;;;;;1.00;1.00;;;7.30;99.90;;;;;;6217545;23;20178;-79
2021/01/28 14:10:51;;;;;;;0.90;0.90;;;7.20;99.90;;;;;;6219471;23;20579;-79
2021/01/28 14:13:18;;;;;;;1.05;1.05;;;7.20;99.90;;;;;;6220221;23;20178;-79
2021/01/28 14:15:44;;;;;;;1.10;1.10;;;7.10;99.90;;;;;;6220263;23;20228;-78
2021/01/28 14:18:15;;;;;;;1.20;1.20;;;7.10;99.90;;;;;;6217232;23;20158;-80
2021/01/28 14:20:43;;;;;;;1.00;1.00;;;7.00;99.90;;;;;;6216443;23;20220;-80
2021/01/28 14:23:11;;;;;;;0.90;0.90;;;7.00;99.90;;;;;;6217464;23;20232;-79
2021/01/28 14:25:40;;;;;;;1.07;1.07;;;7.00;99.90;;;;;;6217676;23;20197;-78
2021/01/28 14:28:07;;;;;;;0.90;0.90;;;6.90;99.90;;;;;;6217196;23;20182;-79
2021/01/28 14:30:34;;;;;;;1.17;1.17;;;7.00;99.90;;;;;;6217595;23;20224;-80
2021/01/28 14:33:01;;;;;;;0.90;0.90;;;7.00;99.90;;;;;;6218962;23;20182;-79
2021/01/28 14:35:29;;;;;;;1.10;1.10;;;6.80;99.90;;;;;;6219685;23;20200;-79
2021/01/28 14:37:57;;;;;;;1.10;1.10;;;6.70;99.90;;;;;;6219422;23;20185;-79
2021/01/28 14:40:25;;;;;;;1.03;1.03;;;6.70;99.90;;;;;;6219890;23;20172;-80
2021/01/28 14:42:53;;;;;;;0.90;0.90;;;6.60;99.90;;;;;;6219158;23;20292;-77
2021/01/28 14:45:23;;;;;;;0.90;0.90;;;6.60;99.90;;;;;;6219787;23;20182;-78
2021/01/28 14:47:50;;;;;;;1.10;1.10;;;6.30;99.90;;;;;;6219083;23;20169;-76
2021/01/28 14:50:18;;;;;;;1.00;1.00;;;6.40;99.90;;;;;;6217790;23;20220;-78
2021/01/28 14:52:45;;;;;;;1.20;1.20;;;6.20;99.90;;;;;;6219411;23;20228;-77
2021/01/28 14:55:13;;;;;;;1.00;1.00;;;6.40;99.90;;;;;;6223282;23;20699;-77
2021/01/28 14:57:41;;;;;;;1.13;1.13;;;6.40;99.90;;;;;;6223096;23;20174;-78
2021/01/28 15:00:10;;;;;;;0.90;0.90;;;6.30;99.90;;;;;;6220030;23;20174;-78
2021/01/28 15:02:37;;;;;;;1.10;1.10;;;6.30;99.90;;;;;;6220685;23;20551;-79
2021/01/28 15:05:05;;;;;;;1.03;1.03;;;6.20;99.90;;;;;;6219220;23;20178;-77
2021/01/28 15:07:32;;;;;;;1.10;1.10;;;6.30;99.90;;;;;;6218144;23;20177;-79
2021/01/28 15:09:59;;;;;;;0.90;0.90;;;6.10;99.90;;;;;;6218116;23;20221;-77
2021/01/28 15:12:26;;;;;;;1.10;1.10;;;6.00;99.90;;;;;;6218832;23;20209;-80
2021/01/28 15:14:54;;;;;;;1.00;1.00;;;6.00;99.90;;;;;;6219867;23;20460;-79
2021/01/28 15:17:21;;;;;;;1.10;1.10;;;6.00;99.90;;;;;;6220510;23;20180;-79
2021/01/28 15:19:48;;;;;;;1.00;1.00;;;6.00;99.90;;;;;;6220145;23;20170;-79
2021/01/28 15:22:15;;;;;;;1.10;1.10;;;6.10;99.90;;;;;;6218715;23;20198;-79
2021/01/28 15:24:42;;;;;;;1.10;1.10;;;6.00;99.90;;;;;;6218848;23;20178;-79
2021/01/28 15:27:09;;;;;;;1.10;1.10;;;5.90;99.90;;;;;;6219471;23;20185;-79
2021/01/28 15:29:36;;;;;;;1.03;1.03;;;5.80;99.90;;;;;;6219835;23;20190;-78
2021/01/28 15:32:04;;;;;;;1.00;1.00;;;5.80;99.90;;;;;;6219700;23;20210;-80
2021/01/28 15:34:33;;;;;;;1.13;1.13;;;5.80;99.90;;;;;;6219500;23;20545;-79
2021/01/28 15:37:00;;;;;;;1.10;1.10;;;5.60;99.90;;;;;;6218345;23;20706;-80
2021/01/28 15:39:27;;;;;;;1.30;1.30;;;5.50;99.90;;;;;;6218257;23;20174;-79
2021/01/28 15:41:54;;;;;;;1.20;1.20;;;5.40;99.90;;;;;;6218734;23;20225;-78
2021/01/28 15:44:21;;;;;;;1.20;1.20;;;5.30;99.90;;;;;;6216773;23;20540;-79
2021/01/28 15:46:48;;;;;;;1.00;1.00;;;5.30;99.90;;;;;;6216859;23;20174;-77
2021/01/28 15:49:16;;;;;;;1.10;1.10;;;5.30;99.90;;;;;;6217275;23;20276;-78
2021/01/28 15:51:44;;;;;;;1.27;1.27;;;5.30;99.90;;;;;;6216463;23;20202;-77
2021/01/28 15:54:12;;;;;;;1.20;1.20;;;5.40;99.90;;;;;;6215837;23;20178;-76
2021/01/28 15:56:54;;;;;;;1.07;1.07;;;5.30;99.90;;;;;;6215708;23;20165;-79
2021/01/28 15:59:22;;;;;;;1.03;1.03;;;5.30;99.90;;;;;;6216684;23;20181;-79
2021/01/28 16:01:50;;;;;;;1.10;1.10;;;5.30;99.90;;;;;;6215578;23;20249;-79
2021/01/28 16:04:18;;;;;;;1.10;1.10;;;5.40;99.90;;;;;;6216379;23;20178;-77
2021/01/28 16:06:47;;;;;;;1.00;1.00;;;5.50;99.90;;;;;;6221797;23;20180;-78
2021/01/28 16:09:16;;;;;;;1.00;1.00;;;5.00;99.90;;;;;;6216790;23;20205;-78
2021/01/28 16:11:43;;;;;;;1.13;1.13;;;5.50;99.90;;;;;;6222216;23;20198;-78
2021/01/28 16:14:12;;;;;;;1.00;1.00;;;5.40;99.90;;;;;;6221316;23;20229;-78
2021/01/28 16:16:39;;;;;;;1.07;1.07;;;5.30;99.90;;;;;;6234415;23;20170;-77
2021/01/28 16:19:07;;;;;;;1.00;1.00;;;5.20;99.90;;;;;;6239482;22;20205;-76
2021/01/28 16:21:35;;;;;;;1.27;1.27;;;5.30;99.90;;;;;;6219367;23;20257;-81
2021/01/28 16:24:02;;;;;;;1.20;1.20;;;5.30;99.90;;;;;;6218746;23;20178;-79
2021/01/28 16:26:28;;;;;;;1.17;1.17;;;5.20;99.90;;;;;;6219176;23;20178;-80
2021/01/28 16:28:55;;;;;;;1.33;1.33;;;5.50;99.90;;;;;;6217876;23;20228;-79
2021/01/28 16:31:23;;;;;;;1.30;1.30;;;5.10;99.90;;;;;;6217956;23;20217;-81
2021/01/28 16:33:50;;;;;;;1.10;1.10;;;4.90;99.90;;;;;;6218397;23;20178;-81
2021/01/28 16:36:17;;;;;;;1.20;1.20;;;4.90;99.90;;;;;;6220394;23;20182;-79
2021/01/28 16:38:46;;;;;;;1.30;1.30;;;4.80;99.90;;;;;;6218971;23;20213;-79
2021/01/28 16:41:14;;;;;;;1.20;1.20;;;4.90;99.90;;;;;;6219479;23;20194;-79
2021/01/28 16:43:41;;;;;;;1.30;1.30;;;4.90;99.90;;;;;;6219096;23;20177;-79
2021/01/28 16:46:08;;;;;;;1.10;1.10;;;4.80;99.90;;;;;;6220010;23;20174;-77
2021/01/28 16:48:35;;;;;;;1.20;1.20;;;4.80;99.90;;;;;;6218448;23;20182;-82
2021/01/28 16:51:05;;;;;;;1.20;1.20;;;5.00;99.90;;;;;;6220414;23;20209;-80
2021/01/28 16:53:32;;;;;;;1.00;1.00;;;;;;;;;;6220365;23;20556;-81
2021/01/28 16:56:00;;;;;;;1.10;1.10;;;5.10;99.90;;;;;;6220952;23;20201;-79
2021/01/28 16:58:27;;;;;;;1.10;1.10;;;5.10;99.90;;;;;;6221527;23;20625;-79
2021/01/28 17:00:54;;;;;;;1.27;1.27;;;5.00;99.90;;;;;;6221217;23;20249;-81
2021/01/28 17:03:21;;;;;;;1.10;1.10;;;5.00;99.90;;;;;;6219998;23;20181;-79
2021/01/28 17:05:49;;;;;;;1.10;1.10;;;5.00;99.90;;;;;;6219542;23;20185;-79
2021/01/28 17:08:16;;;;;;;1.00;1.00;;;5.10;99.90;;;;;;6219141;23;20178;-79
2021/01/28 17:10:43;;;;;;;1.23;1.23;;;5.10;99.90;;;;;;6219496;23;20206;-80
2021/01/28 17:13:12;;;;;;;1.10;1.10;;;5.10;99.90;;;;;;6219601;23;20182;-80
2021/01/28 17:15:39;;;;;;;1.17;1.17;;;;;;;;;;6224083;23;20163;-78
2021/01/28 17:18:06;;;;;;;1.10;1.10;;;5.80;99.90;;;;;;6229433;23;20282;-78
2021/01/28 17:20:33;;;;;;;1.40;1.40;;;5.30;99.90;;;;;;6226830;23;20253;-78
2021/01/28 17:23:00;;;;;;;1.10;1.10;;;5.30;99.90;;;;;;6221434;23;20690;-79
2021/01/28 17:25:27;;;;;;;1.20;1.20;;;5.30;99.90;;;;;;6218710;23;20498;-78
2021/01/28 17:27:54;;;;;;;1.10;1.10;;;5.20;99.90;;;;;;6218486;23;20174;-79
2021/01/28 17:30:28;;;;;;;1.00;1.00;;;5.10;99.90;;;;;;6218436;23;20213;-78
2021/01/28 17:32:56;;;;;;;1.10;1.10;;;5.00;99.90;;;;;;6219482;23;20608;-78
2021/01/28 17:35:27;;;;;;;1.20;1.20;;;4.90;99.90;;;;;;6214667;23;20219;-76
2021/01/28 17:37:55;;;;;;;1.23;1.23;;;5.00;99.90;;;;;;6215145;23;20169;-78
2021/01/28 17:40:22;;;;;;;0.97;0.97;;;5.20;99.90;;;;;;6218827;23;20174;-78
2021/01/28 17:42:50;;;;;;;1.27;1.27;;;5.10;99.90;;;;;;6218470;23;20253;-77
2021/01/28 17:45:20;;;;;;;1.30;1.30;;;5.00;99.90;;;;;;6222742;23;20181;-77
2021/01/28 17:47:49;;;;;;;1.33;1.33;;;5.00;99.90;;;;;;6222888;23;20158;-78
2021/01/28 17:50:17;;;;;;;1.30;1.30;;;4.90;99.90;;;;;;6223734;23;20228;-77
2021/01/28 17:52:44;;;;;;;1.20;1.20;;;4.90;99.90;;;;;;6223734;23;20188;-78
2021/01/28 17:55:14;;;;;;;1.30;1.30;;;5.00;99.90;;;;;;6223706;23;20178;-77
2021/01/28 17:57:41;;;;;;;1.27;1.27;;;5.00;99.90;;;;;;6224758;23;20174;-77
2021/01/28 18:00:10;;;;;;;1.10;1.10;;;4.90;99.90;;;;;;6223162;23;20174;-78
2021/01/28 18:02:37;;;;;;;1.27;1.27;;;5.00;99.90;;;;;;6225150;23;20253;-77
2021/01/28 18:05:07;;;;;;;1.20;1.20;;;5.10;99.90;;;;;;6225236;23;20189;-78
2021/01/28 18:07:33;;;;;;;1.00;1.00;;;5.00;99.90;;;;;;6224645;23;20182;-78
2021/01/28 18:10:00;;;;;;;1.10;1.10;;;5.10;99.90;;;;;;6223372;23;20652;-77
2021/01/28 18:12:27;;;;;;;1.10;1.10;;;5.20;99.90;;;;;;6223724;23;20225;-78
2021/01/28 18:14:54;;;;;;;1.13;1.13;;;5.00;99.90;;;;;;6223273;23;20205;-77
2021/01/28 18:17:21;;;;;;;1.00;1.00;;;5.40;99.90;;;;;;6222363;23;20174;-77
2021/01/28 18:19:48;;;;;;;1.13;1.13;;;5.00;99.90;;;;;;6223752;23;20253;-77
2021/01/28 18:22:16;;;;;;;1.23;1.23;;;5.00;99.90;;;;;;6224974;23;20198;-78
2021/01/28 18:24:43;;;;;;;1.13;1.13;;;4.90;99.90;;;;;;6225435;23;20182;-77
2021/01/28 18:27:11;;;;;;;1.10;1.10;;;5.00;99.90;;;;;;6224786;23;20174;-77
2021/01/28 18:29:38;;;;;;;1.20;1.20;;;4.80;99.90;;;;;;6223532;23;20321;-77
2021/01/28 18:32:06;;;;;;;1.30;1.30;;;4.80;99.90;;;;;;6223767;23;20208;-78
2021/01/28 18:34:33;;;;;;;1.13;1.13;;;4.60;99.90;;;;;;6224959;23;20244;-77
2021/01/28 18:37:00;;;;;;;1.40;1.40;;;4.70;99.90;;;;;;6218785;23;20181;-77
2021/01/28 18:39:28;;;;;;;1.30;1.30;;;4.80;99.90;;;;;;6216030;23;20227;-77
2021/01/28 18:41:56;;;;;;;1.10;1.10;;;4.60;99.90;;;;;;6216660;23;20198;-78
2021/01/28 18:44:23;;;;;;;1.30;1.30;;;4.50;99.90;;;;;;6216251;23;20232;-76
2021/01/28 18:46:50;;;;;;;1.27;1.27;;;4.30;99.90;;;;;;6232627;23;20166;-75
2021/01/28 18:49:18;;;;;;;1.20;1.20;;;4.30;99.90;;;;;;6241378;23;20158;-76
2021/01/28 18:51:46;;;;;;;1.33;1.33;;;4.20;99.90;;;;;;6222461;23;20194;-77
2021/01/28 18:54:14;;;;;;;1.20;1.20;;;4.20;99.90;;;;;;6216204;23;20182;-80
2021/01/28 18:56:42;;;;;;;1.40;1.40;;;4.30;99.90;;;;;;6214628;23;20166;-79
2021/01/28 18:59:09;;;;;;;1.30;1.30;;;4.10;99.90;;;;;;6219305;23;20178;-80
2021/01/28 19:01:36;;;;;;;1.27;1.27;;;4.00;99.90;;;;;;6215656;23;20248;-79
2021/01/28 19:04:06;;;;;;;1.10;1.10;;;4.00;99.90;;;;;;6215227;23;20232;-79
2021/01/28 19:06:32;;;;;;;1.30;1.30;;;4.00;99.90;;;;;;6217161;23;20178;-78
2021/01/28 19:08:59;;;;;;;1.33;1.33;;;4.10;99.90;;;;;;6218866;23;20204;-77
2021/01/28 19:11:26;;;;;;;1.27;1.27;;;3.90;99.90;;;;;;6222738;23;20202;-78
2021/01/28 19:13:54;;;;;;;1.20;1.20;;;3.90;99.90;;;;;;6220283;23;20559;-79
2021/01/28 19:16:22;;;;;;;1.40;1.40;;;3.80;99.90;;;;;;6221650;23;20461;-79
2021/01/28 19:18:49;;;;;;;1.10;1.10;;;3.80;99.90;;;;;;6219532;23;20178;-79
2021/01/28 19:21:16;;;;;;;1.10;1.10;;;3.90;99.90;;;;;;6220010;23;20189;-79
2021/01/28 19:23:44;;;;;;;1.10;1.10;;;3.70;99.90;;;;;;6223756;23;20182;-78
2021/01/28 19:26:11;;;;;;;1.10;1.10;;;3.60;99.90;;;;;;6216986;23;20178;-78
2021/01/28 19:28:38;;;;;;;1.20;1.20;;;3.80;99.90;;;;;;6220044;23;20280;-79
2021/01/28 19:31:07;;;;;;;1.10;1.10;;;3.70;99.90;;;;;;6217430;23;20197;-80
2021/01/28 19:33:34;;;;;;;1.10;1.10;;;3.70;99.90;;;;;;6220218;23;20186;-78
2021/01/28 19:36:02;;;;;;;1.10;1.10;;;3.90;99.90;;;;;;6219096;23;20237;-79
2021/01/28 19:38:30;;;;;;;1.20;1.20;;;3.60;99.90;;;;;;6216750;23;20178;-79
2021/01/28 19:40:58;;;;;;;1.10;1.10;;;3.70;99.90;;;;;;6216633;23;20198;-80
2021/01/28 19:43:28;;;;;;;1.20;1.20;;;4.00;99.90;;;;;;6216924;23;20174;-80
2021/01/28 19:45:55;;;;;;;1.20;1.20;;;3.90;99.90;;;;;;6217116;23;20178;-80
2021/01/28 19:48:23;;;;;;;1.20;1.20;;;3.90;99.90;;;;;;6217358;23;20178;-80
2021/01/28 19:50:51;;;;;;;1.10;1.10;;;;;;;;;;6217231;23;20197;-80
2021/01/28 19:53:19;;;;;;;1.30;1.30;;;3.70;99.90;;;;;;6218594;23;20527;-79
2021/01/28 19:55:46;;;;;;;1.10;1.10;;;3.80;99.90;;;;;;6218517;23;20178;-79
2021/01/28 19:58:14;;;;;;;1.10;1.10;;;3.90;99.90;;;;;;6217132;23;20228;-79
2021/01/28 20:00:41;;;;;;;1.00;1.00;;;4.10;99.90;;;;;;6215958;23;20197;-76
2021/01/28 20:03:10;;;;;;;1.10;1.10;;;4.00;99.90;;;;;;6217078;23;20178;-79
2021/01/28 20:05:39;;;;;;;1.10;1.10;;;3.90;99.90;;;;;;6217896;23;20181;-80
2021/01/28 20:08:07;;;;;;;1.20;1.20;;;3.70;99.90;;;;;;6216045;23;20551;-78
2021/01/28 20:10:36;;;;;;;1.20;1.20;;;3.80;99.90;;;;;;6218276;23;20201;-80
2021/01/28 20:13:05;;;;;;;1.33;1.33;;;3.80;99.90;;;;;;6219150;23;20443;-78
2021/01/28 20:15:35;;;;;;;1.20;1.20;;;3.80;99.90;;;;;;6219591;23;20205;-80
2021/01/28 20:18:03;;;;;;;1.10;1.10;;;3.60;99.90;;;;;;6217868;23;20174;-79
2021/01/28 20:20:31;;;;;;;1.30;1.30;;;3.70;99.90;;;;;;6219576;23;20205;-80
2021/01/28 20:22:59;;;;;;;1.30;1.30;;;3.70;99.90;;;;;;6219394;23;20211;-78
2021/01/28 20:25:28;;;;;;;1.20;1.20;;;3.70;99.90;;;;;;6217823;23;20178;-78
2021/01/28 20:27:55;;;;;;;1.13;1.13;;;3.70;99.90;;;;;;6217328;23;20489;-79
2021/01/28 20:30:23;;;;;;;1.20;1.20;;;3.70;99.90;;;;;;6216997;23;20194;-79
2021/01/28 20:32:51;;;;;;;1.33;1.33;;;3.70;99.90;;;;;;6217306;23;20162;-80
2021/01/28 20:35:21;;;;;;;1.17;1.17;;;3.60;99.90;;;;;;6217362;23;20731;-79
2021/01/28 20:37:48;;;;;;;1.20;1.20;;;3.80;99.90;;;;;;6217042;23;20178;-78
2021/01/28 20:40:18;;;;;;;1.30;1.30;;;3.80;99.90;;;;;;6217550;23;20224;-78
2021/01/28 20:42:46;;;;;;;1.20;1.20;;;3.80;99.90;;;;;;6217707;23;20162;-78
2021/01/28 20:45:15;;;;;;;1.20;1.20;;;3.50;99.90;;;;;;6217224;23;20178;-78
2021/01/28 20:47:42;;;;;;;1.20;1.20;;;3.40;99.90;;;;;;6218769;23;20174;-79
2021/01/28 20:50:10;;;;;;;1.10;1.10;;;3.60;99.90;;;;;;6218306;23;20194;-79
2021/01/28 20:52:38;;;;;;;1.20;1.20;;;;;;;;;;6217917;23;20506;-80
2021/01/28 20:55:07;;;;;;;1.10;1.10;;;3.20;99.90;;;;;;6217740;23;20178;-79
2021/01/28 20:57:36;;;;;;;1.30;1.30;;;3.40;99.90;;;;;;6217613;23;20186;-80
2021/01/28 21:00:06;;;;;;;1.10;1.10;;;3.40;99.90;;;;;;6216144;23;20181;-78
2021/01/28 21:02:32;;;;;;;1.20;1.20;;;3.50;99.90;;;;;;6217122;23;20256;-78
2021/01/28 21:04:59;;;;;;;1.10;1.10;;;3.60;99.90;;;;;;6217331;23;20637;-78
2021/01/28 21:07:26;;;;;;;1.30;1.30;;;3.60;99.90;;;;;;6217486;23;20224;-78
2021/01/28 21:09:53;;;;;;;1.27;1.27;;;3.40;99.90;;;;;;6216658;23;20239;-78
2021/01/28 21:12:21;;;;;;;1.20;1.20;;;3.50;99.90;;;;;;6212810;23;20190;-77
2021/01/28 21:14:49;;;;;;;1.40;1.40;;;3.50;99.90;;;;;;6215205;23;20178;-78
2021/01/28 21:17:16;;;;;;;1.20;1.20;;;3.50;99.90;;;;;;6219751;23;20188;-78
2021/01/28 21:19:43;;;;;;;1.20;1.20;;;3.50;99.90;;;;;;6234269;23;20182;-78
2021/01/28 21:22:10;;;;;;;1.20;1.20;;;3.50;99.90;;;;;;6233001;23;20564;-79
2021/01/28 21:24:37;;;;;;;1.17;1.17;;;3.50;99.90;;;;;;6218453;23;20174;-77
2021/01/28 21:27:04;;;;;;;1.27;1.27;;;3.40;99.90;;;;;;6218644;23;20162;-78
2021/01/28 21:29:31;;;;;;;1.10;1.10;;;3.70;99.90;;;;;;6218433;23;20890;-78
2021/01/28 21:32:00;;;;;;;1.20;1.20;;;3.60;99.90;;;;;;6218273;23;20237;-79
2021/01/28 21:34:31;;;;;;;1.10;1.10;;;3.50;99.90;;;;;;6218661;23;20174;-79
2021/01/28 21:36:59;;;;;;;1.17;1.17;;;3.50;99.90;;;;;;6219207;23;20167;-79
2021/01/28 21:39:27;;;;;;;1.17;1.17;;;3.50;99.90;;;;;;6218622;23;20508;-78
2021/01/28 21:41:54;;;;;;;1.27;1.27;;;3.50;99.90;;;;;;6216582;23;20727;-78
2021/01/28 21:44:21;;;;;;;1.10;1.10;;;3.50;99.90;;;;;;6215818;23;20252;-78
2021/01/28 21:46:48;;;;;;;1.20;1.20;;;3.70;99.90;;;;;;6215582;23;20554;-78
2021/01/28 21:49:16;;;;;;;1.30;1.30;;;3.50;99.90;;;;;;6215834;23;20265;-78
2021/01/28 21:51:42;;;;;;;1.20;1.20;;;3.40;99.90;;;;;;6215531;23;20661;-77
2021/01/28 21:54:10;;;;;;;1.10;1.10;;;3.30;99.90;;;;;;6216370;23;20201;-77
2021/01/28 21:56:36;;;;;;;1.10;1.10;;;3.20;99.90;;;;;;6215917;23;20178;-77
2021/01/28 21:59:03;;;;;;;1.00;1.00;;;3.50;99.90;;;;;;6215509;23;20256;-77
